createdAt,value
2023-05-19T00:02:05.801Z,9.48
2023-05-19T00:04:33.611Z,8.80
2023-05-19T00:07:01.501Z,9.02
2023-05-19T00:09:28.542Z,8.73
2023-05-19T00:11:56.716Z,8.33
2023-05-19T00:14:23.681Z,8.77
2023-05-19T00:16:50.714Z,8.43
2023-05-19T00:19:17.629Z,8.13
2023-05-19T00:21:44.376Z,8.60
2023-05-19T00:24:11.178Z,8.20
2023-05-19T00:26:37.741Z,7.90
2023-05-19T00:29:05.791Z,8.68
2023-05-19T00:31:34.059Z,8.30
2023-05-19T00:34:01.356Z,8.15
2023-05-19T00:36:28.538Z,8.00
2023-05-19T00:38:56.008Z,8.23
2023-05-19T00:41:22.764Z,8.32
2023-05-19T00:43:50.805Z,7.78
2023-05-19T00:46:19.094Z,8.23
2023-05-19T00:48:45.983Z,7.40
2023-05-19T00:51:16.784Z,8.05
2023-05-19T00:53:48.376Z,7.47
2023-05-19T00:56:16.617Z,7.82
2023-05-19T00:58:43.826Z,7.65
2023-05-19T01:01:12.129Z,7.47
2023-05-19T01:03:40.133Z,7.45
2023-05-19T01:06:07.893Z,7.60
2023-05-19T01:08:37.192Z,7.80
2023-05-19T01:11:07.982Z,7.45
2023-05-19T01:13:35.718Z,7.77
2023-05-19T01:16:08.273Z,6.93
2023-05-19T01:18:44.740Z,7.32
2023-05-19T01:21:36.510Z,7.38
2023-05-19T01:24:54.974Z,7.40
2023-05-19T01:27:53.002Z,7.00
2023-05-19T01:30:31.242Z,6.85
2023-05-19T01:33:01.629Z,7.03
2023-05-19T01:35:29.119Z,7.25
2023-05-19T01:37:59.848Z,7.15
2023-05-19T01:40:28.835Z,7.00
2023-05-19T01:42:59.372Z,7.05
2023-05-19T01:45:28.985Z,7.60
2023-05-19T01:47:58.810Z,6.97
2023-05-19T01:50:25.708Z,6.97
2023-05-19T01:52:52.671Z,7.03
2023-05-19T01:55:19.552Z,7.47
2023-05-19T01:58:05.096Z,6.75
2023-05-19T02:00:47.011Z,6.88
2023-05-19T02:03:35.304Z,6.88
2023-05-19T02:06:20.434Z,6.87
2023-05-19T02:09:24.790Z,7.38
2023-05-19T02:12:24.179Z,6.97
2023-05-19T02:14:51.086Z,6.88
2023-05-19T02:17:20.349Z,7.60
2023-05-19T02:19:47.288Z,7.40
2023-05-19T02:22:14.789Z,6.53
2023-05-19T02:24:41.478Z,7.55
2023-05-19T02:27:08.148Z,6.60
2023-05-19T02:29:34.776Z,7.43
2023-05-19T02:32:02.121Z,6.70
2023-05-19T02:34:28.868Z,7.00
2023-05-19T02:36:56.481Z,7.15
2023-05-19T02:39:23.121Z,7.20
2023-05-19T02:41:49.791Z,7.53
2023-05-19T02:44:16.466Z,7.17
2023-05-19T02:46:43.329Z,7.15
2023-05-19T02:49:10.037Z,8.18
2023-05-19T02:51:36.662Z,8.05
2023-05-19T02:54:03.273Z,8.27
2023-05-19T02:56:29.931Z,8.87
2023-05-19T02:58:56.779Z,8.25
2023-05-19T03:01:23.504Z,9.50
2023-05-19T03:03:50.327Z,8.77
2023-05-19T03:06:17.987Z,9.80
2023-05-19T03:08:45.027Z,9.03
2023-05-19T03:11:11.871Z,10.77
2023-05-19T03:13:38.595Z,11.40
2023-05-19T03:16:08.009Z,9.88
2023-05-19T03:18:35.091Z,10.18
2023-05-19T03:21:01.790Z,10.07
2023-05-19T03:23:28.404Z,10.77
2023-05-19T03:25:56.266Z,11.02
2023-05-19T03:28:23.455Z,10.65
2023-05-19T03:30:50.929Z,10.00
2023-05-19T03:33:20.813Z,11.30
2023-05-19T03:35:47.710Z,11.40
2023-05-19T03:38:15.416Z,12.48
2023-05-19T03:40:49.370Z,11.13
2023-05-19T03:43:18.938Z,11.43
2023-05-19T03:45:51.542Z,11.13
2023-05-19T03:48:50.623Z,11.93
2023-05-19T03:51:36.656Z,11.82
2023-05-19T03:54:16.888Z,11.23
2023-05-19T03:56:43.581Z,11.80
2023-05-19T03:59:12.896Z,12.43
2023-05-19T04:01:39.636Z,11.27
2023-05-19T04:04:06.336Z,11.98
2023-05-19T04:06:33.871Z,12.23
2023-05-19T04:09:05.059Z,10.60
2023-05-19T04:11:31.743Z,12.27
2023-05-19T04:13:58.406Z,12.45
2023-05-19T04:16:25.337Z,11.65
2023-05-19T04:18:52.133Z,11.70
2023-05-19T04:21:18.809Z,12.10
2023-05-19T04:23:45.506Z,11.23
2023-05-19T04:26:14.745Z,9.38
2023-05-19T04:28:44.522Z,10.90
2023-05-19T04:31:12.734Z,10.88
2023-05-19T04:33:40.377Z,11.52
2023-05-19T04:36:11.392Z,10.87
2023-05-19T04:38:40.519Z,10.40
2023-05-19T04:41:12.182Z,10.95
2023-05-19T04:43:41.915Z,9.80
2023-05-19T04:46:13.224Z,10.73
2023-05-19T04:48:41.593Z,10.00
2023-05-19T04:51:08.552Z,9.45
2023-05-19T04:53:35.669Z,10.20
2023-05-19T04:56:02.953Z,8.95
2023-05-19T04:58:31.578Z,8.48
2023-05-19T05:00:58.665Z,7.80
2023-05-19T05:03:26.511Z,7.80
2023-05-19T05:05:53.373Z,8.00
2023-05-19T05:08:23.260Z,7.85
2023-05-19T05:10:52.439Z,7.97
2023-05-19T05:13:22.262Z,8.40
2023-05-19T05:15:50.137Z,7.25
2023-05-19T05:18:17.071Z,7.97
2023-05-19T05:20:46.833Z,7.38
2023-05-19T05:23:15.195Z,7.22
2023-05-19T05:25:44.505Z,7.63
2023-05-19T05:28:11.664Z,7.00
2023-05-19T05:30:38.411Z,7.72
2023-05-19T05:33:07.039Z,7.45
2023-05-19T05:35:37.866Z,7.88
2023-05-19T05:38:06.503Z,8.00
2023-05-19T05:40:33.679Z,7.60
2023-05-19T05:43:00.576Z,7.75
2023-05-19T05:45:31.035Z,8.80
2023-05-19T05:48:00.011Z,9.23
2023-05-19T05:50:27.095Z,8.07
2023-05-19T05:52:55.941Z,9.55
2023-05-19T05:55:24.140Z,6.93
2023-05-19T05:57:51.718Z,6.75
2023-05-19T06:00:19.143Z,7.93
2023-05-19T06:02:51.919Z,8.43
2023-05-19T06:05:19.854Z,7.68
2023-05-19T06:07:48.032Z,8.57
2023-05-19T06:10:19.951Z,7.47
2023-05-19T06:12:48.085Z,7.63
2023-05-19T06:15:15.504Z,7.00
2023-05-19T06:17:58.750Z,8.05
2023-05-19T06:20:25.450Z,6.75
2023-05-19T06:22:52.558Z,9.20
2023-05-19T06:25:21.231Z,7.70
2023-05-19T06:27:47.884Z,7.60
2023-05-19T06:30:15.993Z,6.93
2023-05-19T06:32:52.769Z,8.55
2023-05-19T06:35:19.534Z,7.22
2023-05-19T06:37:46.266Z,7.63
2023-05-19T06:40:13.365Z,6.60
2023-05-19T06:42:41.885Z,5.82
2023-05-19T06:45:21.917Z,7.57
2023-05-19T06:47:50.443Z,8.00
2023-05-19T06:50:17.342Z,7.82
2023-05-19T06:52:47.056Z,5.80
2023-05-19T06:55:13.794Z,7.78
2023-05-19T06:57:40.533Z,7.57
2023-05-19T07:00:13.344Z,7.82
2023-05-19T07:02:43.264Z,7.45
2023-05-19T07:05:10.481Z,7.50
2023-05-19T07:07:37.139Z,6.18
2023-05-19T07:10:06.912Z,8.38
2023-05-19T07:12:33.896Z,5.38
2023-05-19T07:15:01.045Z,7.93
2023-05-19T07:17:28.770Z,6.30
2023-05-19T07:19:55.539Z,7.85
2023-05-19T07:22:24.167Z,8.50
2023-05-19T07:24:51.136Z,6.40
2023-05-19T07:27:17.935Z,8.75
2023-05-19T07:29:44.605Z,10.40
2023-05-19T07:32:11.339Z,9.48
2023-05-19T07:34:37.962Z,9.48
2023-05-19T07:37:04.830Z,7.47
2023-05-19T07:39:32.349Z,8.02
2023-05-19T07:41:59.358Z,9.50
2023-05-19T07:44:27.134Z,9.15
2023-05-19T07:46:54.570Z,10.15
2023-05-19T07:49:21.282Z,8.48
2023-05-19T07:51:48.056Z,8.02
2023-05-19T07:54:14.688Z,6.50
2023-05-19T07:56:41.642Z,9.40
2023-05-19T07:59:08.415Z,9.60
2023-05-19T08:01:35.107Z,8.07
2023-05-19T08:04:02.295Z,8.57
2023-05-19T08:06:30.093Z,7.97
2023-05-19T08:08:56.749Z,9.02
2023-05-19T08:11:23.358Z,9.43
2023-05-19T08:13:50.029Z,7.68
2023-05-19T08:16:16.761Z,9.70
2023-05-19T08:18:43.481Z,9.77
2023-05-19T08:21:10.146Z,7.00
2023-05-19T08:23:37.439Z,6.65
2023-05-19T08:26:04.536Z,8.35
2023-05-19T08:28:31.414Z,7.43
2023-05-19T08:30:58.065Z,8.60
2023-05-19T08:33:24.832Z,7.95
2023-05-19T08:35:51.506Z,10.00
2023-05-19T08:38:18.094Z,10.30
2023-05-19T08:40:47.254Z,9.80
2023-05-19T08:43:14.227Z,7.27
2023-05-19T08:45:48.237Z,9.32
2023-05-19T08:48:17.215Z,10.00
2023-05-19T08:50:57.686Z,7.60
2023-05-19T08:53:33.881Z,9.50
2023-05-19T08:56:15.377Z,8.97
2023-05-19T08:58:44.081Z,9.18
2023-05-19T09:01:14.588Z,9.98
2023-05-19T09:03:42.680Z,8.90
2023-05-19T09:06:12.458Z,7.53
2023-05-19T09:08:40.234Z,8.17
2023-05-19T09:11:07.344Z,7.05
2023-05-19T09:13:34.046Z,9.20
2023-05-19T09:16:01.975Z,8.95
2023-05-19T09:18:29.623Z,8.65
2023-05-19T09:21:03.197Z,6.80
2023-05-19T09:23:34.102Z,8.38
2023-05-19T09:26:07.614Z,7.35
2023-05-19T09:28:36.705Z,9.15
2023-05-19T09:31:04.530Z,7.55
2023-05-19T09:33:33.779Z,8.47
2023-05-19T09:36:01.373Z,8.27
2023-05-19T09:38:28.184Z,7.80
2023-05-19T09:40:59.333Z,6.95
2023-05-19T09:43:33.915Z,8.43
2023-05-19T09:46:03.693Z,7.13
2023-05-19T09:48:30.551Z,8.10
2023-05-19T09:50:58.130Z,6.97
2023-05-19T09:53:27.983Z,7.57
2023-05-19T09:55:58.149Z,7.78
2023-05-19T09:58:26.293Z,8.43
2023-05-19T10:00:56.986Z,8.98
2023-05-19T10:03:24.092Z,7.78
2023-05-19T10:05:53.010Z,8.32
2023-05-19T10:08:20.221Z,6.28
2023-05-19T10:10:47.660Z,8.27
2023-05-19T10:13:16.463Z,8.23
2023-05-19T10:15:57.019Z,7.72
2023-05-19T10:18:26.838Z,7.65
2023-05-19T10:20:54.346Z,7.25
2023-05-19T10:23:22.241Z,8.00
2023-05-19T10:25:50.976Z,5.85
2023-05-19T10:28:21.293Z,8.10
2023-05-19T10:30:50.943Z,7.82
2023-05-19T10:33:19.626Z,8.20
2023-05-19T10:35:58.290Z,7.10
2023-05-19T10:38:32.236Z,7.25
2023-05-19T10:41:12.748Z,6.63
2023-05-19T10:44:06.760Z,7.35
2023-05-19T10:46:33.587Z,5.95
2023-05-19T10:49:00.218Z,7.07
2023-05-19T10:51:33.908Z,7.13
2023-05-19T10:54:10.450Z,6.68
2023-05-19T10:56:42.297Z,7.10
2023-05-19T10:59:33.234Z,6.30
2023-05-19T11:02:07.155Z,7.13
2023-05-19T11:04:51.940Z,7.28
2023-05-19T11:07:20.499Z,6.20
2023-05-19T11:09:51.984Z,7.53
2023-05-19T11:12:25.682Z,6.63
2023-05-19T11:14:53.803Z,6.23
2023-05-19T11:17:23.771Z,7.47
2023-05-19T11:19:55.543Z,7.63
2023-05-19T11:22:28.397Z,6.60
2023-05-19T11:24:55.615Z,6.85
2023-05-19T11:27:33.297Z,5.20
2023-05-19T11:30:11.423Z,5.38
2023-05-19T11:32:42.777Z,6.55
2023-05-19T11:35:10.240Z,7.47
2023-05-19T11:37:37.324Z,6.30
2023-05-19T11:40:09.132Z,5.60
2023-05-19T11:42:36.987Z,6.38
2023-05-19T11:45:07.170Z,4.55
2023-05-19T11:47:42.602Z,6.22
2023-05-19T11:50:18.931Z,7.30
2023-05-19T11:52:47.419Z,7.10
2023-05-19T11:55:24.135Z,6.68
2023-05-19T11:58:11.052Z,6.03
2023-05-19T12:00:41.680Z,6.65
2023-05-19T12:03:09.392Z,7.07
2023-05-19T12:05:45.184Z,4.80
2023-05-19T12:08:12.902Z,5.95
2023-05-19T12:10:40.553Z,6.78
2023-05-19T12:13:09.582Z,6.50
2023-05-19T12:15:36.780Z,5.18
2023-05-19T12:18:03.949Z,5.43
2023-05-19T12:20:35.790Z,6.53
2023-05-19T12:23:03.191Z,6.45
2023-05-19T12:25:31.080Z,5.85
2023-05-19T12:27:59.720Z,5.68
2023-05-19T12:30:28.556Z,5.50
2023-05-19T12:32:58.171Z,4.68
2023-05-19T12:35:29.986Z,5.10
2023-05-19T12:37:57.536Z,4.95
2023-05-19T12:40:24.169Z,6.03
2023-05-19T12:42:53.340Z,5.07
2023-05-19T12:45:23.319Z,5.43
2023-05-19T12:47:51.070Z,5.75
2023-05-19T12:50:17.795Z,5.20
2023-05-19T12:52:45.876Z,5.72
2023-05-19T12:55:14.100Z,4.37
2023-05-19T12:57:42.775Z,4.90
2023-05-19T13:00:17.685Z,4.97
2023-05-19T13:03:05.669Z,4.60
2023-05-19T13:05:43.658Z,4.97
2023-05-19T13:08:12.073Z,4.00
2023-05-19T13:10:40.474Z,4.30
2023-05-19T13:13:08.398Z,4.53
2023-05-19T13:15:38.660Z,4.32
2023-05-19T13:18:11.243Z,4.80
2023-05-19T13:20:39.560Z,5.30
2023-05-19T13:23:06.673Z,3.80
2023-05-19T13:25:34.393Z,4.50
2023-05-19T13:28:05.074Z,4.68
2023-05-19T13:30:33.448Z,4.18
2023-05-19T13:33:00.370Z,4.20
2023-05-19T13:35:27.223Z,4.35
2023-05-19T13:37:54.199Z,4.40
2023-05-19T13:40:21.249Z,5.05
2023-05-19T13:42:48.102Z,4.45
2023-05-19T13:45:14.762Z,5.20
2023-05-19T13:47:41.495Z,4.35
2023-05-19T13:50:08.544Z,5.43
2023-05-19T13:52:35.348Z,4.28
2023-05-19T13:55:02.349Z,4.00
2023-05-19T13:57:29.109Z,3.50
2023-05-19T14:00:02.574Z,4.63
2023-05-19T14:02:39.340Z,4.40
2023-05-19T14:05:07.377Z,3.17
2023-05-19T14:07:35.112Z,3.22
2023-05-19T14:10:06.713Z,4.43
2023-05-19T14:12:44.980Z,3.65
2023-05-19T14:15:21.613Z,4.50
2023-05-19T14:17:49.061Z,4.00
2023-05-19T14:20:15.954Z,4.22
2023-05-19T14:22:42.629Z,3.67
2023-05-19T14:25:09.345Z,4.15
2023-05-19T14:27:36.136Z,3.78
2023-05-19T14:30:02.803Z,3.25
2023-05-19T14:32:30.617Z,3.85
2023-05-19T14:34:57.539Z,4.17
2023-05-19T14:37:26.507Z,3.60
2023-05-19T14:39:53.483Z,3.72
2023-05-19T14:42:20.152Z,3.58
2023-05-19T14:44:46.745Z,4.65
2023-05-19T14:47:13.447Z,3.80
2023-05-19T14:49:40.055Z,3.42
2023-05-19T14:52:07.003Z,3.97
2023-05-19T14:54:33.958Z,3.78
2023-05-19T14:57:01.518Z,3.55
2023-05-19T14:59:29.470Z,3.47
2023-05-19T15:01:56.177Z,3.75
2023-05-19T15:04:22.925Z,3.55
2023-05-19T15:06:58.056Z,3.20
2023-05-19T15:09:32.341Z,4.45
2023-05-19T15:12:01.111Z,3.90
2023-05-19T15:14:29.410Z,4.47
2023-05-19T15:16:57.465Z,3.90
2023-05-19T15:19:24.279Z,3.25
2023-05-19T15:21:51.184Z,3.90
2023-05-19T15:24:17.955Z,3.43
2023-05-19T15:26:45.268Z,3.50
2023-05-19T15:29:11.916Z,3.92
2023-05-19T15:31:38.731Z,3.60
2023-05-19T15:34:05.442Z,4.10
2023-05-19T15:36:32.163Z,3.23
2023-05-19T15:38:58.748Z,3.83
2023-05-19T15:41:25.770Z,3.40
2023-05-19T15:43:53.538Z,4.38
2023-05-19T15:46:20.434Z,3.42
2023-05-19T15:48:47.070Z,3.70
2023-05-19T15:51:13.955Z,3.88
2023-05-19T15:53:40.700Z,3.95
2023-05-19T15:56:07.407Z,4.20
2023-05-19T15:58:34.162Z,4.10
2023-05-19T16:01:01.234Z,4.00
2023-05-19T16:03:28.189Z,4.30
2023-05-19T16:05:54.892Z,3.72
2023-05-19T16:08:21.550Z,4.10
2023-05-19T16:10:48.358Z,3.80
2023-05-19T16:13:15.058Z,3.87
2023-05-19T16:15:41.833Z,3.40
2023-05-19T16:18:08.632Z,4.40
2023-05-19T16:20:35.534Z,3.90
2023-05-19T16:23:03.211Z,4.15
2023-05-19T16:25:30.158Z,4.00
2023-05-19T16:27:57.333Z,3.70
2023-05-19T16:30:26.181Z,4.05
2023-05-19T16:32:56.099Z,3.75
2023-05-19T16:35:23.193Z,3.55
2023-05-19T16:37:49.977Z,3.77
2023-05-19T16:40:16.538Z,4.10
2023-05-19T16:42:43.206Z,4.10
2023-05-19T16:45:10.243Z,4.05
2023-05-19T16:47:36.967Z,4.43
2023-05-19T16:50:04.092Z,3.77
2023-05-19T16:52:30.831Z,3.90
2023-05-19T16:54:57.489Z,3.63
2023-05-19T16:57:24.163Z,3.60
2023-05-19T16:59:50.737Z,3.65
2023-05-19T17:02:17.394Z,4.03
2023-05-19T17:04:44.103Z,4.03
2023-05-19T17:07:16.361Z,3.28
2023-05-19T17:09:44.284Z,3.72
2023-05-19T17:12:11.154Z,3.70
2023-05-19T17:14:37.910Z,3.40
2023-05-19T17:17:04.842Z,4.10
2023-05-19T17:19:31.656Z,3.78
2023-05-19T17:21:58.374Z,4.05
2023-05-19T17:24:25.074Z,3.85
2023-05-19T17:26:51.734Z,3.93
2023-05-19T17:29:18.479Z,4.05
2023-05-19T17:31:45.230Z,4.43
2023-05-19T17:34:11.862Z,3.83
2023-05-19T17:36:38.524Z,3.85
2023-05-19T17:39:05.086Z,3.80
2023-05-19T17:41:31.773Z,4.00
2023-05-19T17:43:58.672Z,3.95
2023-05-19T17:46:25.668Z,4.15
2023-05-19T17:48:52.279Z,4.20
2023-05-19T17:51:19.255Z,4.70
2023-05-19T17:53:46.136Z,4.28
2023-05-19T17:56:13.096Z,4.75
2023-05-19T17:58:41.238Z,4.45
2023-05-19T18:01:08.523Z,4.18
2023-05-19T18:03:35.556Z,3.63
2023-05-19T18:06:02.556Z,3.92
2023-05-19T18:08:31.106Z,4.50
2023-05-19T18:10:58.127Z,3.72
2023-05-19T18:13:26.069Z,4.35
2023-05-19T18:15:52.847Z,4.07
2023-05-19T18:18:19.644Z,4.53
2023-05-19T18:20:46.274Z,4.15
2023-05-19T18:23:12.844Z,4.43
2023-05-19T18:25:39.527Z,3.95
2023-05-19T18:28:06.404Z,4.67
2023-05-19T18:30:33.379Z,4.13
2023-05-19T18:33:03.568Z,4.82
2023-05-19T18:35:30.359Z,4.82
2023-05-19T18:37:57.382Z,4.25
2023-05-19T18:40:24.461Z,4.60
2023-05-19T18:42:51.154Z,4.45
2023-05-19T18:45:17.902Z,4.03
2023-05-19T18:47:44.662Z,4.40
2023-05-19T18:50:11.366Z,5.10
2023-05-19T18:52:37.957Z,4.70
2023-05-19T18:55:04.910Z,4.88
2023-05-19T18:57:31.621Z,4.95
2023-05-19T18:59:58.356Z,4.93
2023-05-19T19:02:25.047Z,4.60
2023-05-19T19:04:51.768Z,4.53
2023-05-19T19:07:18.623Z,4.70
2023-05-19T19:09:45.398Z,5.00
2023-05-19T19:12:12.060Z,4.90
2023-05-19T19:14:38.984Z,5.07
2023-05-19T19:17:06.068Z,4.53
2023-05-19T19:19:33.041Z,4.70
2023-05-19T19:21:59.818Z,5.07
2023-05-19T19:24:28.357Z,5.40
2023-05-19T19:26:55.050Z,5.35
2023-05-19T19:29:21.921Z,5.70
2023-05-19T19:31:48.891Z,4.47
2023-05-19T19:34:15.669Z,5.40
2023-05-19T19:36:42.279Z,4.25
2023-05-19T19:39:09.326Z,5.50
2023-05-19T19:41:36.613Z,5.00
2023-05-19T19:44:03.617Z,5.30
2023-05-19T19:46:30.367Z,5.28
2023-05-19T19:49:00.603Z,5.13
2023-05-19T19:51:28.194Z,5.15
2023-05-19T19:53:54.986Z,5.70
2023-05-19T19:56:24.515Z,5.82
2023-05-19T19:58:51.241Z,4.82
2023-05-19T20:01:20.474Z,4.35
2023-05-19T20:03:48.063Z,4.68
2023-05-19T20:06:15.053Z,5.13
2023-05-19T20:08:41.883Z,5.55
2023-05-19T20:11:08.726Z,5.00
2023-05-19T20:13:35.424Z,4.32
2023-05-19T20:16:02.176Z,6.53
2023-05-19T20:18:29.852Z,6.57
2023-05-19T20:20:56.891Z,6.00
2023-05-19T20:23:23.608Z,6.32
2023-05-19T20:26:09.304Z,6.05
2023-05-19T20:28:37.305Z,7.00
2023-05-19T20:31:05.046Z,6.80
2023-05-19T20:33:32.025Z,5.90
2023-05-19T20:35:58.667Z,6.20
2023-05-19T20:38:25.449Z,4.40
2023-05-19T20:40:52.615Z,5.18
2023-05-19T20:43:19.390Z,5.80
2023-05-19T20:45:46.398Z,5.57
2023-05-19T20:48:13.140Z,6.82
2023-05-19T20:50:39.925Z,5.95
2023-05-19T20:53:07.371Z,6.60
2023-05-19T20:55:36.122Z,7.20
2023-05-19T20:58:03.016Z,6.70
2023-05-19T21:00:30.604Z,6.57
2023-05-19T21:02:57.884Z,7.15
2023-05-19T21:05:24.872Z,6.82
2023-05-19T21:07:51.516Z,7.27
2023-05-19T21:10:18.396Z,7.63
2023-05-19T21:12:45.626Z,7.97
2023-05-19T21:15:12.595Z,6.82
2023-05-19T21:17:39.286Z,7.72
2023-05-19T21:20:06.639Z,8.43
2023-05-19T21:22:35.564Z,8.02
2023-05-19T21:25:02.240Z,7.68
2023-05-19T21:27:28.897Z,7.72
2023-05-19T21:29:55.600Z,8.15
2023-05-19T21:32:22.276Z,8.20
2023-05-19T21:34:48.915Z,8.50
2023-05-19T21:37:17.293Z,8.15
2023-05-19T21:39:44.262Z,7.88
2023-05-19T21:42:10.953Z,8.13
2023-05-19T21:44:37.695Z,8.27
2023-05-19T21:47:04.388Z,8.65
2023-05-19T21:49:31.369Z,7.68
2023-05-19T21:51:58.371Z,8.45
2023-05-19T21:54:25.184Z,8.52
2023-05-19T21:56:51.817Z,8.23
2023-05-19T21:59:19.472Z,8.73
2023-05-19T22:01:46.802Z,8.57
2023-05-19T22:04:15.978Z,8.35
2023-05-19T22:06:43.271Z,8.30
2023-05-19T22:09:10.189Z,8.30
2023-05-19T22:11:36.883Z,8.85
2023-05-19T22:14:03.531Z,8.30
2023-05-19T22:16:31.008Z,7.90
2023-05-19T22:18:57.837Z,7.70
2023-05-19T22:21:24.548Z,7.70
2023-05-19T22:23:52.031Z,7.75
2023-05-19T22:26:18.706Z,7.53
2023-05-19T22:28:45.438Z,7.53
2023-05-19T22:31:12.380Z,8.02
2023-05-19T22:33:39.056Z,7.77
2023-05-19T22:36:06.376Z,7.88
2023-05-19T22:38:33.126Z,7.47
2023-05-19T22:40:59.731Z,8.32
2023-05-19T22:43:26.437Z,7.97
2023-05-19T22:45:53.163Z,8.10
2023-05-19T22:48:19.892Z,8.55
2023-05-19T22:50:46.586Z,8.30
2023-05-19T22:53:13.269Z,8.10
2023-05-19T22:55:40.028Z,9.23
2023-05-19T22:58:06.653Z,16.07
2023-05-19T23:00:33.440Z,15.70
2023-05-19T23:03:00.096Z,13.95
2023-05-19T23:05:26.879Z,9.80
2023-05-19T23:07:53.635Z,9.52
2023-05-19T23:10:20.222Z,8.40
2023-05-19T23:12:46.954Z,8.32
2023-05-19T23:15:13.665Z,9.00
2023-05-19T23:17:40.485Z,8.48
2023-05-19T23:20:07.843Z,8.63
2023-05-19T23:22:34.545Z,8.20
2023-05-19T23:25:05.595Z,8.23
2023-05-19T23:27:32.261Z,8.50
2023-05-19T23:29:58.976Z,8.20
2023-05-19T23:32:25.671Z,7.97
2023-05-19T23:34:52.345Z,6.90
2023-05-19T23:37:19.053Z,7.13
2023-05-19T23:39:45.665Z,6.65
2023-05-19T23:42:13.119Z,7.28
2023-05-19T23:44:39.878Z,7.18
2023-05-19T23:47:06.813Z,7.27
2023-05-19T23:49:33.634Z,22.35
2023-05-19T23:52:00.330Z,23.48
2023-05-19T23:54:26.985Z,19.92
2023-05-19T23:56:55.720Z,21.25
2023-05-19T23:59:22.407Z,14.53
